| Date | Time | Temp. (oF) | Dew Point (oF) | Rel. Hum. (%) | Press. (in.) | Wind Dir. | Wind Speed (mph) | Hourly Rainfall (in.) |
|
|---|---|---|---|---|---|---|---|---|---|
| 1 | 08/12 | 00:00 | 77 | 71 | 84 | 29.81 | SE | 4 | 0.00 |
| 2 | 08/11 | 23:00 | 78 | 72 | 83 | 29.80 | SSW | 0 | 0.00 |
| 3 | 08/11 | 22:00 | 80 | 71 | 76 | 29.79 | SSW | 0 | 0.00 |
| 4 | 08/11 | 21:00 | 82 | 71 | 70 | 29.78 | SSW | 0 | 0.00 |
| 5 | 08/11 | 20:00 | 86 | 69 | 58 | 29.79 | SSW | 0 | 0.00 |
| 6 | 08/11 | 19:00 | 89 | 67 | 50 | 29.77 | SSW | 0 | 0.00 |
| 7 | 08/11 | 18:00 | 92 | 65 | 42 | 29.77 | NNE | 5 | 0.00 |
| 8 | 08/11 | 17:00 | 94 | 67 | 43 | 29.77 | WNW | 4 | 0.00 |
| 9 | 08/11 | 16:00 | 93 | 68 | 46 | 29.79 | N | 2 | 0.00 |
| 10 | 08/11 | 15:00 | 93 | 66 | 43 | 29.82 | NE | 7 | 0.00 |
| 11 | 08/11 | 14:00 | 91 | 70 | 51 | 29.84 | WSW | 4 | 0.00 |
| 12 | 08/11 | 13:00 | 90 | 69 | 52 | 29.84 | NW | 7 | 0.00 |
| 13 | 08/11 | 12:00 | 87 | 71 | 60 | 29.86 | NW | 3 | 0.00 |
| 14 | 08/11 | 11:00 | 86 | 71 | 63 | 29.88 | N | 4 | 0.00 |
| 15 | 08/11 | 10:00 | 83 | 71 | 69 | 29.88 | NNW | 4 | 0.00 |
| 16 | 08/11 | 09:00 | 80 | 70 | 74 | 29.88 | NE | 0 | 0.00 |
| 17 | 08/11 | 08:00 | 77 | 73 | 89 | 29.88 | NE | 0 | 0.00 |
| 18 | 08/11 | 07:00 | 73 | 70 | 93 | 29.87 | W | 0 | 0.00 |
| 19 | 08/11 | 06:00 | 74 | 70 | 90 | 29.86 | NW | 0 | 0.00 |
| 20 | 08/11 | 05:00 | 74 | 70 | 89 | 29.84 | NW | 0 | 0.00 |
| 21 | 08/11 | 04:00 | 77 | 71 | 82 | 29.85 | NNW | 0 | 0.00 |
| 22 | 08/11 | 03:00 | 79 | 72 | 80 | 29.85 | N | 0 | 0.00 |
| 23 | 08/11 | 02:00 | 79 | 72 | 80 | 29.84 | WNW | 0 | 0.00 |
| 24 | 08/11 | 01:00 | 79 | 72 | 81 | 29.84 | W | 0 | 0.00 |